Time;durP1;ratioP1;P1;durP2;ratioP2;P2;SDS_P1;SDS_P2;PMS_P1;PMS_P2;Temp;Humidity;BMP_temperature;BMP_pressure;BME280_temperature;BME280_humidity;BME280_pressure;Samples;Min_cycle;Max_cycle;Signal;HPM_P1;HPM_P2
2022/03/01 00:01:24;;;;;;;19.95;10.15;;;;;;;;;;4981650;28;107423;-64
2022/03/01 00:03:50;;;;;;;20.45;10.30;;;;;;;;;;4988499;28;106261;-65
2022/03/01 00:06:17;;;;;;;19.52;9.93;;;;;;;;;;4964604;28;107393;-65
2022/03/01 00:08:43;;;;;;;20.75;10.15;;;;;;;;;;4985762;28;106373;-64
2022/03/01 00:11:09;;;;;;;22.35;10.60;;;;;;;;;;4986692;28;106093;-64
2022/03/01 00:13:36;;;;;;;27.20;11.40;;;;;;;;;;4984560;28;106393;-65
2022/03/01 00:16:03;;;;;;;22.13;10.20;;;;;;;;;;4978651;28;107478;-65
2022/03/01 00:18:30;;;;;;;18.58;9.40;;;;;;;;;;4991096;28;106172;-64
2022/03/01 00:20:58;;;;;;;25.48;9.85;;;;;;;;;;4985010;28;106297;-64
2022/03/01 00:23:24;;;;;;;25.48;10.70;;;;;;;;;;4987748;28;106265;-67
2022/03/01 00:25:51;;;;;;;24.90;10.15;;;;;;;;;;4983602;28;106217;-67
2022/03/01 00:28:17;;;;;;;25.17;10.70;;;;;;;;;;4988392;28;106219;-64
2022/03/01 00:30:43;;;;;;;19.52;9.80;;;;;;;;;;4978020;28;106078;-64
2022/03/01 00:33:10;;;;;;;21.85;10.60;;;;;;;;;;4986142;28;106717;-65
2022/03/01 00:35:36;;;;;;;21.65;9.88;;;;;;;;;;4986146;28;106416;-66
2022/03/01 00:38:02;;;;;;;23.45;10.15;;;;;;;;;;4986804;28;106108;-66
2022/03/01 00:40:29;;;;;;;23.27;10.30;;;;;;;;;;4992082;28;106650;-66
2022/03/01 00:42:55;;;;;;;22.45;10.63;;;;;;;;;;4984923;28;106501;-66
2022/03/01 00:45:21;;;;;;;21.05;9.75;;;;;;;;;;4987736;28;106803;-65
2022/03/01 00:47:48;;;;;;;24.58;10.73;;;;;;;;;;4983526;28;106973;-64
2022/03/01 00:50:14;;;;;;;20.38;10.80;;;;;;;;;;4983896;28;107481;-64
2022/03/01 00:52:41;;;;;;;23.08;11.18;;;;;;;;;;4987706;28;106993;-64
2022/03/01 00:55:07;;;;;;;23.55;10.57;;;;;;;;;;4973502;28;108711;-65
2022/03/01 00:57:34;;;;;;;22.05;10.85;;;;;;;;;;4984051;28;107334;-65
2022/03/01 01:00:02;;;;;;;29.08;10.65;;;;;;;;;;4988053;28;106442;-66
2022/03/01 01:02:28;;;;;;;25.08;10.25;;;;;;;;;;4979732;28;106510;-63
2022/03/01 01:05:10;;;;;;;22.48;10.07;;;;;;;;;;5064265;27;108343;-64
2022/03/01 01:07:36;;;;;;;26.30;11.10;;;;;;;;;;5037227;27;107829;-67
2022/03/01 01:10:03;;;;;;;23.65;10.93;;;;;;;;;;5050870;27;105833;-64
2022/03/01 01:12:30;;;;;;;21.55;10.10;;;;;;;;;;5057527;27;106875;-64
2022/03/01 01:14:57;;;;;;;20.98;10.40;;;;;;;;;;5047900;27;106626;-65
2022/03/01 01:17:23;;;;;;;24.60;10.98;;;;;;;;;;5040234;27;106918;-64
2022/03/01 01:19:50;;;;;;;21.90;11.23;;;;;;;;;;5049865;27;106361;-65
2022/03/01 01:25:03;;;;;;;25.98;11.57;;;;;;;;;;5050558;27;105898;-64
2022/03/01 01:27:29;;;;;;;23.77;10.65;;;;;;;;;;5043829;27;107433;-64
2022/03/01 01:29:56;;;;;;;23.48;10.45;;;;;;;;;;5051476;27;106880;-64
2022/03/01 01:32:22;;;;;;;24.90;10.68;;;;;;;;;;5044655;27;106543;-64
2022/03/01 01:34:48;;;;;;;21.60;11.10;;;;;;;;;;5056696;27;107276;-64
2022/03/01 01:37:15;;;;;;;26.05;10.85;;;;;;;;;;5044106;27;108320;-64
2022/03/01 01:39:42;;;;;;;24.10;10.75;;;;;;;;;;5050529;27;107336;-64
2022/03/01 01:42:08;;;;;;;24.38;10.90;;;;;;;;;;5044454;27;106380;-64
2022/03/01 01:44:35;;;;;;;21.67;11.10;;;;;;;;;;5052270;27;106306;-64
2022/03/01 01:47:01;;;;;;;24.50;11.85;;;;;;;;;;5035063;27;106604;-64
2022/03/01 01:49:28;;;;;;;21.08;11.23;;;;;;;;;;5045716;27;106342;-64
2022/03/01 01:51:54;;;;;;;22.13;11.73;;;;;;;;;;5046479;27;106094;-64
2022/03/01 01:54:20;;;;;;;24.30;10.93;;;;;;;;;;5052664;27;107923;-64
2022/03/01 01:56:47;;;;;;;22.77;11.15;;;;;;;;;;5033928;27;105987;-64
2022/03/01 01:59:13;;;;;;;27.30;11.27;;;;;;;;;;5033580;27;106830;-64
2022/03/01 02:01:39;;;;;;;22.33;10.48;;;;;;;;;;5051445;27;107382;-64
2022/03/01 02:04:06;;;;;;;23.98;10.80;;;;;;;;;;5045626;27;106015;-64
2022/03/01 02:06:36;;;;;;;34.25;12.43;;;;;;;;;;5045009;27;106660;-64
2022/03/01 02:09:03;;;;;;;23.30;10.45;;;;;;;;;;5035175;27;107218;-65
2022/03/01 02:11:29;;;;;;;22.02;11.23;;;;;;;;;;5044651;27;106664;-64
2022/03/01 02:13:55;;;;;;;23.15;11.13;;;;;;;;;;5036002;27;109603;-65
2022/03/01 02:16:22;;;;;;;21.08;10.70;;;;;;;;;;5044464;27;106293;-64
2022/03/01 02:18:49;;;;;;;23.45;11.55;;;;;;;;;;5036009;27;107827;-65
2022/03/01 02:21:15;;;;;;;20.88;10.90;;;;;;;;;;5025443;27;107571;-65
2022/03/01 02:23:42;;;;;;;22.95;11.32;;;;;;;;;;5027660;27;106114;-64
2022/03/01 02:26:08;;;;;;;26.23;11.52;;;;;;;;;;5029105;27;106031;-65
2022/03/01 02:28:35;;;;;;;21.35;11.63;;;;;;;;;;5042833;27;106446;-65
2022/03/01 02:31:01;;;;;;;23.15;10.75;;;;;;;;;;5015719;27;105994;-64
2022/03/01 02:33:28;;;;;;;23.70;11.45;;;;;;;;;;5045596;27;106085;-64
2022/03/01 02:35:54;;;;;;;24.45;11.63;;;;;;;;;;5021749;27;105978;-64
2022/03/01 02:38:20;;;;;;;22.88;11.27;;;;;;;;;;5037681;27;106843;-64
2022/03/01 02:40:47;;;;;;;27.98;11.88;;;;;;;;;;5018580;27;107505;-64
2022/03/01 02:43:13;;;;;;;22.83;10.55;;;;;;;;;;5029036;27;106721;-64
2022/03/01 02:45:40;;;;;;;22.23;10.88;;;;;;;;;;5040871;27;106788;-64
2022/03/01 02:48:06;;;;;;;24.60;11.55;;;;;;;;;;5046660;27;108276;-64
2022/03/01 02:50:32;;;;;;;26.23;11.40;;;;;;;;;;5024724;27;106187;-64
2022/03/01 02:52:59;;;;;;;22.05;11.30;;;;;;;;;;5040930;27;105796;-64
2022/03/01 02:55:25;;;;;;;25.05;10.63;;;;;;;;;;5025177;27;106938;-64
2022/03/01 02:57:51;;;;;;;26.38;11.45;;;;;;;;;;5039216;27;106656;-64
2022/03/01 03:00:18;;;;;;;24.85;11.27;;;;;;;;;;5027983;27;106372;-64
2022/03/01 03:02:44;;;;;;;22.25;11.00;;;;;;;;;;5032964;27;106519;-66
2022/03/01 03:05:11;;;;;;;24.27;11.85;;;;;;;;;;5029909;27;107049;-66
2022/03/01 03:07:40;;;;;;;23.45;11.70;;;;;;;;;;5029924;27;108005;-65
2022/03/01 03:10:07;;;;;;;24.65;10.82;;;;;;;;;;5029697;27;106785;-66
2022/03/01 03:12:33;;;;;;;24.52;12.07;;;;;;;;;;5019336;27;106677;-65
2022/03/01 03:15:00;;;;;;;20.77;10.65;;;;;;;;;;5035969;27;105747;-65
2022/03/01 03:17:26;;;;;;;21.98;11.00;;;;;;;;;;5030287;27;105765;-65
2022/03/01 03:19:53;;;;;;;25.65;11.18;;;;;;;;;;5026313;27;106319;-64
2022/03/01 03:22:20;;;;;;;25.98;11.45;;;;;;;;;;5026643;27;106094;-66
2022/03/01 03:24:46;;;;;;;21.30;10.77;;;;;;;;;;5024376;27;106383;-64
2022/03/01 03:27:12;;;;;;;24.77;11.05;;;;;;;;;;5024149;27;107560;-64
2022/03/01 03:29:39;;;;;;;24.40;10.85;;;;;;;;;;5025580;27;106864;-64
2022/03/01 03:32:06;;;;;;;27.38;11.70;;;;;;;;;;5040174;27;106937;-64
2022/03/01 03:34:32;;;;;;;20.98;10.68;;;;;;;;;;5031208;27;107042;-64
2022/03/01 03:36:58;;;;;;;24.02;11.55;;;;;;;;;;5022850;27;107664;-64
2022/03/01 03:39:25;;;;;;;23.45;11.20;;;;;;;;;;5024000;27;107002;-63
2022/03/01 03:41:51;;;;;;;22.38;10.57;;;;;;;;;;5026936;27;106130;-64
2022/03/01 03:44:18;;;;;;;26.10;11.10;;;;;;;;;;5022010;27;106701;-64
2022/03/01 03:46:45;;;;;;;23.67;11.25;;;;;;;;;;5017105;27;107315;-64
2022/03/01 03:49:12;;;;;;;24.48;11.70;;;;;;;;;;5029759;27;107110;-64
2022/03/01 03:51:38;;;;;;;28.60;12.32;;;;;;;;;;5016942;27;106297;-63
2022/03/01 03:54:04;;;;;;;23.73;11.52;;;;;;;;;;5029903;27;106385;-64
2022/03/01 03:56:31;;;;;;;26.17;11.75;;;;;;;;;;5034069;27;107042;-64
2022/03/01 03:58:58;;;;;;;27.45;11.98;;;;;;;;;;5029270;27;107361;-63
2022/03/01 04:01:24;;;;;;;27.95;11.50;;;;;;;;;;5025986;27;108085;-65
2022/03/01 04:03:51;;;;;;;26.50;12.05;;;;;;;;;;5018975;27;107167;-65
2022/03/01 04:06:17;;;;;;;30.48;11.32;;;;;;;;;;5022005;27;106552;-64
2022/03/01 04:08:44;;;;;;;24.23;11.52;;;;;;;;;;5029874;27;105896;-66
2022/03/01 04:11:10;;;;;;;26.02;11.75;;;;;;;;;;5030547;27;106004;-66
2022/03/01 04:13:36;;;;;;;22.58;11.18;;;;;;;;;;5019775;27;106159;-66
2022/03/01 04:16:03;;;;;;;22.67;11.70;;;;;;;;;;5029902;27;106343;-66
2022/03/01 04:18:29;;;;;;;24.75;11.75;;;;;;;;;;5032252;27;106011;-65
2022/03/01 04:20:56;;;;;;;23.98;11.82;;;;;;;;;;5033650;27;107025;-65
2022/03/01 04:23:22;;;;;;;24.80;11.65;;;;;;;;;;5033307;27;106402;-65
2022/03/01 04:25:49;;;;;;;23.13;10.57;;;;;;;;;;5031211;27;106646;-65
2022/03/01 04:28:15;;;;;;;25.77;10.90;;;;;;;;;;5018005;27;106405;-64
2022/03/01 04:30:42;;;;;;;23.85;11.23;;;;;;;;;;5032061;27;106641;-64
2022/03/01 04:33:08;;;;;;;24.65;11.13;;;;;;;;;;5017503;27;107297;-64
2022/03/01 04:35:34;;;;;;;26.23;11.57;;;;;;;;;;5027139;27;107629;-64
2022/03/01 04:38:01;;;;;;;23.80;11.07;;;;;;;;;;5026148;27;106178;-63
2022/03/01 04:40:27;;;;;;;25.25;11.38;;;;;;;;;;5018794;27;107465;-64
2022/03/01 04:42:53;;;;;;;27.65;11.40;;;;;;;;;;5033346;27;107009;-64
2022/03/01 04:45:20;;;;;;;25.90;11.07;;;;;;;;;;5022922;27;108346;-64
2022/03/01 04:47:46;;;;;;;27.73;11.48;;;;;;;;;;5023578;27;106187;-64
2022/03/01 04:50:13;;;;;;;27.75;11.60;;;;;;;;;;5026444;27;107012;-64
2022/03/01 04:52:39;;;;;;;27.63;11.30;;;;;;;;;;5035767;27;108723;-64
2022/03/01 04:55:06;;;;;;;26.27;11.07;;;;;;;;;;5022501;27;106250;-64
2022/03/01 04:57:33;;;;;;;22.50;11.00;;;;;;;;;;5033710;27;105644;-64
2022/03/01 04:59:59;;;;;;;22.70;10.98;;;;;;;;;;5034595;27;107546;-63
2022/03/01 05:02:28;;;;;;;21.42;10.68;;;;;;;;;;5026781;27;105619;-64
2022/03/01 05:04:55;;;;;;;26.92;11.68;;;;;;;;;;5024723;27;108487;-64
2022/03/01 05:07:21;;;;;;;24.05;11.13;;;;;;;;;;5019521;27;105956;-64
2022/03/01 05:09:48;;;;;;;22.17;9.35;;;;;;;;;;5031434;27;106559;-64
2022/03/01 05:12:14;;;;;;;23.02;11.35;;;;;;;;;;5038609;27;106404;-64
2022/03/01 05:14:40;;;;;;;24.45;10.90;;;;;;;;;;5030335;27;107284;-64
2022/03/01 05:17:07;;;;;;;20.95;9.98;;;;;;;;;;5028311;27;107698;-64
2022/03/01 05:19:33;;;;;;;19.67;9.52;;;;;;;;;;5037933;27;106787;-64
2022/03/01 05:22:00;;;;;;;24.95;11.75;;;;;;;;;;5028523;27;106486;-64
2022/03/01 05:24:27;;;;;;;21.35;10.45;;;;;;;;;;5033594;27;106767;-65
2022/03/01 05:26:54;;;;;;;26.77;11.35;;;;;;;;;;5029380;27;105962;-65
2022/03/01 05:29:20;;;;;;;22.70;10.40;;;;;;;;;;5023685;27;106756;-65
2022/03/01 05:31:48;;;;;;;23.02;12.13;;;;;;;;;;5030225;27;107021;-65
2022/03/01 05:34:14;;;;;;;23.73;11.20;;;;;;;;;;5034289;27;106352;-65
2022/03/01 05:36:41;;;;;;;24.33;11.02;;;;;;;;;;5026940;27;105986;-65
2022/03/01 05:39:08;;;;;;;22.40;10.65;;;;;;;;;;5034876;27;108185;-66
2022/03/01 05:41:34;;;;;;;21.50;9.95;;;;;;;;;;5025114;27;106022;-65
2022/03/01 05:44:01;;;;;;;19.48;10.15;;;;;;;;;;5048671;27;106005;-64
2022/03/01 05:46:27;;;;;;;23.60;11.65;;;;;;;;;;5017754;27;105902;-64
2022/03/01 05:48:53;;;;;;;24.50;10.52;;;;;;;;;;5030689;27;107059;-64
2022/03/01 05:51:20;;;;;;;20.92;10.43;;;;;;;;;;5042783;27;108072;-64
2022/03/01 05:53:47;;;;;;;29.33;11.13;;;;;;;;;;5034444;27;107111;-64
2022/03/01 05:56:13;;;;;;;25.30;10.45;;;;;;;;;;5029847;27;105983;-64
2022/03/01 05:58:39;;;;;;;20.25;10.30;;;;;;;;;;5036036;27;106655;-65
2022/03/01 06:01:06;;;;;;;26.52;10.98;;;;;;;;;;5042417;27;106254;-65
2022/03/01 06:03:32;;;;;;;25.40;11.20;;;;;;;;;;5035588;27;106548;-65
2022/03/01 06:05:58;;;;;;;22.88;9.85;;;;;;;;;;5019918;27;107306;-63
2022/03/01 06:08:25;;;;;;;23.27;11.00;;;;;;;;;;5021951;27;108200;-64
2022/03/01 06:10:51;;;;;;;23.38;10.60;;;;;;;;;;5019173;27;106970;-64
2022/03/01 06:13:17;;;;;;;21.42;10.45;;;;;;;;;;5037273;27;106593;-64
2022/03/01 06:15:44;;;;;;;24.85;10.65;;;;;;;;;;5031861;27;107177;-64
2022/03/01 06:18:12;;;;;;;23.45;11.27;;;;;;;;;;5037398;27;107325;-64
2022/03/01 06:20:38;;;;;;;24.58;10.65;;;;;;;;;;5029254;27;107179;-64
2022/03/01 06:23:06;;;;;;;22.98;10.82;;;;;;;;;;5035095;27;106710;-64
2022/03/01 06:25:32;;;;;;;22.48;10.38;;;;;;;;;;5035231;27;107480;-64
2022/03/01 06:27:59;;;;;;;24.42;11.23;;;;;;;;;;5040501;27;106413;-64
2022/03/01 06:30:25;;;;;;;27.13;11.13;;;;;;;;;;5023677;27;108330;-65
2022/03/01 06:32:51;;;;;;;23.08;10.95;;;;;;;;;;5029955;27;106618;-65
2022/03/01 06:35:18;;;;;;;21.73;10.73;;;;;;;;;;5034021;27;106626;-64
2022/03/01 06:37:50;;;;;;;23.15;10.07;;;;;;;;;;5029998;27;107761;-65
2022/03/01 06:40:18;;;;;;;21.25;10.50;;;;;;;;;;5036984;27;106095;-64
2022/03/01 06:42:47;;;;;;;25.42;11.20;;;;;;;;;;5021875;27;108549;-64
2022/03/01 06:45:13;;;;;;;24.52;10.68;;;;;;;;;;5018379;27;107269;-64
2022/03/01 06:47:40;;;;;;;23.02;10.93;;;;;;;;;;5001054;27;106569;-64
2022/03/01 06:50:07;;;;;;;23.95;10.98;;;;;;;;;;5029888;27;106907;-65
2022/03/01 06:52:34;;;;;;;24.70;10.93;;;;;;;;;;5002304;27;105982;-64
2022/03/01 06:55:02;;;;;;;25.17;11.95;;;;;;;;;;5023178;27;106768;-64
2022/03/01 06:57:28;;;;;;;23.58;11.10;;;;;;;;;;5024919;27;106971;-67
2022/03/01 06:59:55;;;;;;;25.20;10.80;;;;;;;;;;5017172;27;107149;-65
2022/03/01 07:02:21;;;;;;;21.75;11.02;;;;;;;;;;5032666;27;107239;-64
2022/03/01 07:04:48;;;;;;;26.25;10.52;;;;;;;;;;5011332;27;106627;-63
2022/03/01 07:07:15;;;;;;;24.13;11.02;;;;;;;;;;5029798;27;107330;-64
2022/03/01 07:09:41;;;;;;;23.42;10.63;;;;;;;;;;5030094;27;106619;-64
2022/03/01 07:12:08;;;;;;;24.13;11.45;;;;;;;;;;5036475;27;106352;-63
2022/03/01 07:14:34;;;;;;;25.95;11.57;;;;;;;;;;5026743;27;106307;-63
2022/03/01 07:17:00;;;;;;;24.83;10.68;;;;;;;;;;5031402;27;107847;-63
2022/03/01 07:19:27;;;;;;;20.05;10.57;;;;;;;;;;5030072;27;107243;-63
2022/03/01 07:21:53;;;;;;;26.92;12.00;;;;;;;;;;5020827;27;107797;-63
2022/03/01 07:24:19;;;;;;;26.40;11.55;;;;;;;;;;5029074;27;107434;-63
2022/03/01 07:26:46;;;;;;;25.48;12.05;;;;;;;;;;5031524;27;106090;-64
2022/03/01 07:29:13;;;;;;;21.48;10.95;;;;;;;;;;5031627;27;108041;-64
2022/03/01 07:31:39;;;;;;;28.05;12.55;;;;;;;;;;5025846;27;107743;-63
2022/03/01 07:34:06;;;;;;;26.77;12.32;;;;;;;;;;5024129;27;106998;-64
2022/03/01 07:36:32;;;;;;;27.38;12.43;;;;;;;;;;5019953;27;107537;-63
2022/03/01 07:38:58;;;;;;;28.67;12.10;;;;;;;;;;5023617;27;106327;-64
2022/03/01 07:41:25;;;;;;;26.42;12.20;;;;;;;;;;5017718;27;106951;-62
2022/03/01 07:43:52;;;;;;;27.38;12.60;;;;;;;;;;5026857;27;107347;-64
2022/03/01 07:46:19;;;;;;;26.50;11.63;;;;;;;;;;5033145;27;106437;-62
2022/03/01 07:48:47;;;;;;;26.30;12.68;;;;;;;;;;5027029;27;107088;-62
2022/03/01 07:51:13;;;;;;;27.60;11.65;;;;;;;;;;5016069;27;107880;-62
2022/03/01 07:53:40;;;;;;;22.88;11.73;;;;;;;;;;5029076;27;107240;-62
2022/03/01 07:56:06;;;;;;;25.95;12.15;;;;;;;;;;5027075;27;107398;-62
2022/03/01 07:58:33;;;;;;;24.92;12.18;;;;;;;;;;5022230;27;107245;-62
2022/03/01 08:00:59;;;;;;;26.52;11.35;;;;;;;;;;5038105;27;106362;-62
2022/03/01 08:03:26;;;;;;;29.92;11.93;;;;;;;;;;5009102;27;107409;-63
2022/03/01 08:05:53;;;;;;;27.35;12.48;;;;;;;;;;5029163;27;106454;-62
2022/03/01 08:08:19;;;;;;;24.60;12.23;;;;;;;;;;5025140;27;107210;-62
2022/03/01 08:10:46;;;;;;;26.60;12.55;;;;;;;;;;5022729;27;107410;-63
2022/03/01 08:13:32;;;;;;;25.08;12.10;;;;;;;;;;5024057;27;106790;-63
2022/03/01 08:15:59;;;;;;;22.42;11.32;;;;;;;;;;5030944;27;106766;-62
2022/03/01 08:18:25;;;;;;;24.50;12.13;;;;;;;;;;5015897;27;106576;-62
2022/03/01 08:20:54;;;;;;;28.25;12.07;;;;;;;;;;5019126;27;107509;-62
2022/03/01 08:23:20;;;;;;;29.13;12.52;;;;;;;;;;5023423;27;106282;-61
2022/03/01 08:25:46;;;;;;;25.70;12.77;;;;;;;;;;5022294;27;106405;-63
2022/03/01 08:28:13;;;;;;;25.73;12.55;;;;;;;;;;5015981;27;106734;-65
2022/03/01 08:30:39;;;;;;;27.77;12.25;;;;;;;;;;5016359;27;106400;-64
2022/03/01 08:33:06;;;;;;;26.42;12.88;;;;;;;;;;5015371;27;108222;-63
2022/03/01 08:35:37;;;;;;;25.10;12.25;;;;;;;;;;5020602;27;107037;-65
2022/03/01 08:38:04;;;;;;;24.92;12.15;;;;;;;;;;5018110;27;106322;-63
2022/03/01 08:40:32;;;;;;;24.98;11.93;;;;;;;;;;5014547;27;107572;-64
2022/03/01 08:42:58;;;;;;;26.45;11.80;;;;;;;;;;5017430;27;107689;-64
2022/03/01 08:45:24;;;;;;;27.05;13.13;;;;;;;;;;5018552;27;106652;-64
2022/03/01 08:47:51;;;;;;;23.33;11.77;;;;;;;;;;5011848;27;107383;-63
2022/03/01 08:50:18;;;;;;;25.17;12.00;;;;;;;;;;5007430;27;107368;-62
2022/03/01 08:53:04;;;;;;;26.48;11.38;;;;;;;;;;5009991;27;106331;-64
2022/03/01 08:55:31;;;;;;;25.60;11.95;;;;;;;;;;5024175;27;106684;-64
2022/03/01 08:58:00;;;;;;;26.23;12.23;;;;;;;;;;5023166;27;107008;-64
2022/03/01 09:00:27;;;;;;;27.40;12.60;;;;;;;;;;5019751;27;106434;-64
2022/03/01 09:02:54;;;;;;;26.98;12.50;;;;;;;;;;5021299;27;108643;-65
2022/03/01 09:05:20;;;;;;;24.13;12.45;;;;;;;;;;5011836;27;107490;-62
2022/03/01 09:07:47;;;;;;;26.95;12.98;;;;;;;;;;4991822;27;107449;-62
2022/03/01 09:10:13;;;;;;;25.40;12.60;;;;;;;;;;5015429;27;107479;-62
2022/03/01 09:12:40;;;;;;;24.38;12.32;;;;;;;;;;5012483;27;106165;-62
2022/03/01 09:15:06;;;;;;;25.40;12.68;;;;;;;;;;5019115;27;106664;-62
2022/03/01 09:17:33;;;;;;;30.77;12.98;;;;;;;;;;5003846;27;107508;-62
2022/03/01 09:19:59;;;;;;;25.08;12.85;;;;;;;;;;5017151;27;106331;-63
2022/03/01 09:22:27;;;;;;;23.35;12.55;;;;;;;;;;5021076;27;106276;-62
2022/03/01 09:24:53;;;;;;;27.38;11.80;;;;;;;;;;5013673;27;106904;-62
2022/03/01 09:27:20;;;;;;;25.45;11.48;;;;;;;;;;5013415;27;108010;-63
2022/03/01 09:29:46;;;;;;;24.80;12.32;;;;;;;;;;5038150;27;107480;-62
2022/03/01 09:32:15;;;;;;;23.80;12.02;;;;;;;;;;5009746;27;107048;-65
2022/03/01 09:34:43;;;;;;;21.80;11.60;;;;;;;;;;5004349;27;106681;-63
2022/03/01 09:37:10;;;;;;;27.50;12.63;;;;;;;;;;5019249;27;107495;-62
2022/03/01 09:39:36;;;;;;;26.50;12.90;;;;;;;;;;5020414;27;106957;-62
2022/03/01 09:42:02;;;;;;;26.17;13.10;;;;;;;;;;5018221;27;106096;-63
2022/03/01 09:44:29;;;;;;;28.02;12.75;;;;;;;;;;5018393;27;108020;-63
2022/03/01 09:46:55;;;;;;;23.75;11.80;;;;;;;;;;5023787;27;107860;-64
2022/03/01 09:49:22;;;;;;;26.75;11.65;;;;;;;;;;5016205;27;106676;-63
2022/03/01 09:51:50;;;;;;;26.02;13.30;;;;;;;;;;5023780;27;106326;-65
2022/03/01 09:54:16;;;;;;;27.92;13.13;;;;;;;;;;5019132;27;108528;-64
2022/03/01 09:56:44;;;;;;;23.30;12.80;;;;;;;;;;5014721;27;107377;-62
2022/03/01 09:59:10;;;;;;;27.13;13.52;;;;;;;;;;5016935;27;107737;-63
2022/03/01 10:01:36;;;;;;;26.52;12.52;;;;;;;;;;5021519;27;108387;-63
2022/03/01 10:04:07;;;;;;;22.27;11.63;;;;;;;;;;5018478;27;106353;-63
2022/03/01 10:06:44;;;;;;;29.35;12.77;;;;;;;;;;5024154;27;107748;-62
2022/03/01 10:09:12;;;;;;;25.25;12.85;;;;;;;;;;5037343;27;107413;-61
2022/03/01 10:11:38;;;;;;;25.88;12.32;;;;;;;;;;5036260;27;107179;-62
2022/03/01 10:14:05;;;;;;;24.90;12.23;;;;;;;;;;5033483;27;106549;-64
2022/03/01 10:16:38;;;;;;;25.05;12.63;;;;;;;;;;5033135;27;106243;-64
2022/03/01 10:19:08;;;;;;;26.92;11.85;;;;;;;;;;5018627;27;105881;-62
2022/03/01 10:21:35;;;;;;;29.75;13.38;;;;;;;;;;5024681;27;107903;-62
2022/03/01 10:24:01;;;;;;;25.17;11.88;;;;;;;;;;5023327;27;107546;-63
2022/03/01 10:26:28;;;;;;;26.60;12.68;;;;;;;;;;5039352;27;105974;-63
2022/03/01 10:28:56;;;;;;;25.83;13.00;;;;;;;;;;5022840;27;107882;-66
2022/03/01 10:31:27;;;;;;;26.95;12.68;;;;;;;;;;5020981;27;108099;-63
2022/03/01 10:34:00;;;;;;;27.60;12.45;;;;;;;;;;5019204;27;107054;-64
2022/03/01 10:36:28;;;;;;;26.10;12.52;;;;;;;;;;5023291;27;107382;-64
2022/03/01 10:39:17;;;;;;;24.35;12.43;;;;;;;;;;5022681;27;106430;-63
2022/03/01 10:41:43;;;;;;;;;;;;;;;;;;5009403;27;106805;-63
2022/03/01 10:44:14;;;;;;;26.35;12.45;;;;;;;;;;5014816;27;136386;-64
2022/03/01 10:46:48;;;;;;;24.10;12.25;;;;;;;;;;5018636;27;107237;-63
2022/03/01 10:49:16;;;;;;;26.15;12.73;;;;;;;;;;5016737;27;107840;-64
2022/03/01 10:51:56;;;;;;;25.05;12.77;;;;;;;;;;5026199;27;106285;-62
2022/03/01 10:54:26;;;;;;;27.15;12.98;;;;;;;;;;5030983;27;108853;-64
2022/03/01 10:56:55;;;;;;;23.27;12.73;;;;;;;;;;5020759;27;107355;-64
2022/03/01 10:59:26;;;;;;;25.52;12.90;;;;;;;;;;5029230;27;106193;-64
2022/03/01 11:01:52;;;;;;;27.85;13.48;;;;;;;;;;5026365;27;106946;-65
2022/03/01 11:04:24;;;;;;;24.83;12.85;;;;;;;;;;5016580;27;106966;-64
2022/03/01 11:06:52;;;;;;;30.65;13.73;;;;;;;;;;5021963;27;106219;-65
2022/03/01 11:09:18;;;;;;;23.52;12.50;;;;;;;;;;5018334;27;106884;-65
2022/03/01 11:11:47;;;;;;;27.10;13.73;;;;;;;;;;5039410;27;107440;-69
2022/03/01 11:14:15;;;;;;;22.63;12.57;;;;;;;;;;5028321;27;106710;-66
2022/03/01 11:17:01;;;;;;;32.85;13.05;;;;;;;;;;5012756;27;107288;-67
2022/03/01 11:19:46;;;;;;;27.98;13.63;;;;;;;;;;5018012;27;106864;-66
2022/03/01 11:22:20;;;;;;;25.05;12.48;;;;;;;;;;5019369;27;106469;-66
2022/03/01 11:24:47;;;;;;;28.80;14.20;;;;;;;;;;5022997;27;106519;-67
2022/03/01 11:27:17;;;;;;;25.05;13.52;;;;;;;;;;5016207;27;106428;-67
2022/03/01 11:29:44;;;;;;;25.98;13.25;;;;;;;;;;5025442;27;108450;-65
2022/03/01 11:32:12;;;;;;;27.65;13.63;;;;;;;;;;5021234;27;107259;-65
2022/03/01 11:34:39;;;;;;;26.10;12.63;;;;;;;;;;5027666;27;108376;-65
2022/03/01 11:37:11;;;;;;;25.40;13.80;;;;;;;;;;5015976;27;106950;-65
2022/03/01 11:39:38;;;;;;;27.95;13.60;;;;;;;;;;5028149;27;106706;-66
2022/03/01 11:42:08;;;;;;;27.17;13.55;;;;;;;;;;5030460;27;106739;-65
2022/03/01 11:44:42;;;;;;;27.52;13.27;;;;;;;;;;5025973;27;107000;-66
2022/03/01 11:47:13;;;;;;;25.15;13.02;;;;;;;;;;5045933;27;106771;-64
2022/03/01 11:50:09;;;;;;;29.33;13.55;;;;;;;;;;5029732;27;106719;-64
2022/03/01 11:52:47;;;;;;;28.58;13.68;;;;;;;;;;4999994;27;107231;-63
2022/03/01 11:55:14;;;;;;;32.25;14.25;;;;;;;;;;5022159;27;106498;-63
2022/03/01 11:57:43;;;;;;;29.77;14.18;;;;;;;;;;5014577;27;107454;-64
2022/03/01 12:00:13;;;;;;;23.92;13.00;;;;;;;;;;5026198;27;106752;-66
2022/03/01 12:02:43;;;;;;;24.33;13.80;;;;;;;;;;5028062;27;106970;-63
2022/03/01 12:05:18;;;;;;;25.35;13.10;;;;;;;;;;5028971;27;108005;-64
2022/03/01 12:07:45;;;;;;;31.10;13.57;;;;;;;;;;5028960;27;107820;-62
2022/03/01 12:10:31;;;;;;;28.35;13.00;;;;;;;;;;5036897;27;106760;-63
2022/03/01 12:12:57;;;;;;;25.88;13.52;;;;;;;;;;5027005;27;107518;-65
2022/03/01 12:15:31;;;;;;;28.42;13.43;;;;;;;;;;5034862;27;106557;-63
2022/03/01 12:18:09;;;;;;;30.50;13.80;;;;;;;;;;5025977;27;107159;-65
2022/03/01 12:20:38;;;;;;;29.08;13.77;;;;;;;;;;5022880;27;106571;-64
2022/03/01 12:23:06;;;;;;;26.40;13.80;;;;;;;;;;5032754;27;106771;-63
2022/03/01 12:25:33;;;;;;;25.85;13.52;;;;;;;;;;5032277;27;107467;-63
2022/03/01 12:28:01;;;;;;;27.35;13.65;;;;;;;;;;5021287;27;108102;-63
2022/03/01 12:30:28;;;;;;;26.25;14.40;;;;;;;;;;5019804;27;107142;-64
2022/03/01 12:32:56;;;;;;;26.20;14.65;;;;;;;;;;5023033;27;106384;-64
2022/03/01 12:35:23;;;;;;;26.93;14.33;;;;;;;;;;5023502;27;108640;-66
2022/03/01 12:37:50;;;;;;;27.23;14.27;;;;;;;;;;5014909;27;106795;-69
2022/03/01 12:40:27;;;;;;;25.65;14.43;;;;;;;;;;5029092;27;107169;-67
2022/03/01 12:43:04;;;;;;;24.90;14.30;;;;;;;;;;5020837;27;106761;-68
2022/03/01 12:45:35;;;;;;;25.52;15.15;;;;;;;;;;5026450;27;106545;-65
2022/03/01 12:48:07;;;;;;;29.75;15.48;;;;;;;;;;5018391;27;106973;-64
2022/03/01 12:50:33;;;;;;;27.87;15.77;;;;;;;;;;5025509;27;107495;-64
2022/03/01 12:53:00;;;;;;;26.55;14.68;;;;;;;;;;5022852;27;107946;-64
2022/03/01 12:55:26;;;;;;;25.13;14.88;;;;;;;;;;5029044;27;106623;-69
2022/03/01 12:57:53;;;;;;;27.98;14.27;;;;;;;;;;5026316;27;107076;-64
2022/03/01 13:00:20;;;;;;;25.45;14.27;;;;;;;;;;5024371;27;107593;-64
2022/03/01 13:02:50;;;;;;;23.90;13.23;;;;;;;;;;5023624;27;105915;-65
2022/03/01 13:05:24;;;;;;;36.35;14.48;;;;;;;;;;5026191;27;107793;-65
2022/03/01 13:07:50;;;;;;;22.70;13.35;;;;;;;;;;5021593;27;106448;-65
2022/03/01 13:10:47;;;;;;;29.17;14.63;;;;;;;;;;5015141;27;106535;-66
2022/03/01 13:13:14;;;;;;;31.30;14.50;;;;;;;;;;5004834;27;107602;-66
2022/03/01 13:15:45;;;;;;;27.40;14.25;;;;;;;;;;5013456;27;106414;-64
2022/03/01 13:18:12;;;;;;;27.77;13.77;;;;;;;;;;5018824;27;106178;-65
2022/03/01 13:20:38;;;;;;;25.77;14.20;;;;;;;;;;5026701;27;106896;-64
2022/03/01 13:23:09;;;;;;;27.27;14.27;;;;;;;;;;5021641;27;105818;-65
2022/03/01 13:25:36;;;;;;;27.50;14.63;;;;;;;;;;5031994;27;106798;-64
2022/03/01 13:28:03;;;;;;;27.60;14.60;;;;;;;;;;5025476;27;106115;-65
2022/03/01 13:30:30;;;;;;;27.13;14.25;;;;;;;;;;5026763;27;107523;-64
2022/03/01 13:33:02;;;;;;;25.77;13.52;;;;;;;;;;5018830;27;107430;-65
2022/03/01 13:35:29;;;;;;;28.55;13.80;;;;;;;;;;5025789;27;107744;-64
2022/03/01 13:38:00;;;;;;;25.27;14.13;;;;;;;;;;5002311;27;107400;-67
2022/03/01 13:40:27;;;;;;;30.85;14.02;;;;;;;;;;5026542;27;108280;-63
2022/03/01 13:43:03;;;;;;;32.20;15.15;;;;;;;;;;5021570;27;106580;-62
2022/03/01 13:45:30;;;;;;;29.17;14.05;;;;;;;;;;5016810;27;107971;-63
2022/03/01 13:48:06;;;;;;;25.80;14.18;;;;;;;;;;5012589;27;107867;-65
2022/03/01 13:50:32;;;;;;;24.92;14.13;;;;;;;;;;5023709;27;106811;-66
2022/03/01 13:53:07;;;;;;;33.00;14.93;;;;;;;;;;5013727;27;107454;-65
2022/03/01 13:55:35;;;;;;;33.65;14.90;;;;;;;;;;5014992;27;108645;-62
2022/03/01 13:58:03;;;;;;;31.50;14.75;;;;;;;;;;5016153;27;109726;-64
2022/03/01 14:00:31;;;;;;;33.92;14.63;;;;;;;;;;5009736;27;107055;-64
2022/03/01 14:03:01;;;;;;;36.10;15.10;;;;;;;;;;5011369;27;106590;-64
2022/03/01 14:05:28;;;;;;;27.30;14.68;;;;;;;;;;5011131;27;106985;-64
2022/03/01 14:07:56;;;;;;;26.27;14.82;;;;;;;;;;5016102;27;107354;-66
2022/03/01 14:10:24;;;;;;;30.05;15.27;;;;;;;;;;5015278;27;106783;-64
2022/03/01 14:12:58;;;;;;;24.08;13.98;;;;;;;;;;5017039;27;108894;-64